Time;durP1;ratioP1;P1;durP2;ratioP2;P2;SDS_P1;SDS_P2;PMS_P1;PMS_P2;Temp;Humidity;BMP_temperature;BMP_pressure;BME280_temperature;BME280_humidity;BME280_pressure;Samples;Min_cycle;Max_cycle;Signal;HPM_P1;HPM_P2
2020/12/29 00:00:52;;;;;;;9.00;5.30;;;3.60;99.90;;;;;;5036446;28;20025;-75
2020/12/29 00:03:18;;;;;;;9.75;5.05;;;3.70;99.90;;;;;;5036519;28;20048;-75
2020/12/29 00:05:44;;;;;;;9.98;5.50;;;3.70;99.90;;;;;;5036149;28;20022;-72
2020/12/29 00:08:10;;;;;;;10.85;5.40;;;3.60;99.90;;;;;;5035964;28;20481;-72
2020/12/29 00:10:37;;;;;;;10.70;5.60;;;3.60;99.90;;;;;;5035573;28;20026;-75
2020/12/29 00:13:03;;;;;;;11.98;5.63;;;3.60;99.90;;;;;;5026521;28;20424;-75
2020/12/29 00:15:28;;;;;;;10.43;5.95;;;3.60;99.90;;;;;;5056168;28;20028;-74
2020/12/29 00:17:54;;;;;;;10.50;5.40;;;3.60;99.90;;;;;;5055649;28;20032;-74
2020/12/29 00:20:20;;;;;;;10.63;5.68;;;3.70;99.90;;;;;;5038036;28;20115;-72
2020/12/29 00:22:46;;;;;;;9.27;5.15;;;3.60;99.90;;;;;;5056258;28;20104;-73
2020/12/29 00:25:15;;;;;;;12.60;5.95;;;3.60;99.90;;;;;;5055396;28;20497;-72
2020/12/29 00:27:40;;;;;;;10.93;5.55;;;3.60;99.90;;;;;;5039438;28;20037;-71
2020/12/29 00:30:06;;;;;;;11.68;5.63;;;3.60;99.90;;;;;;5036019;28;20048;-74
2020/12/29 00:32:32;;;;;;;13.15;5.65;;;3.60;99.90;;;;;;5035854;28;20029;-72
2020/12/29 00:34:57;;;;;;;9.57;4.80;;;3.60;99.90;;;;;;5018300;28;20025;-72
2020/12/29 00:37:23;;;;;;;9.80;5.07;;;3.60;99.90;;;;;;5018013;28;20021;-72
2020/12/29 00:39:48;;;;;;;9.60;5.28;;;3.60;99.90;;;;;;5037870;28;20032;-72
2020/12/29 00:42:14;;;;;;;9.07;4.82;;;3.60;99.90;;;;;;5055352;28;20061;-72
2020/12/29 00:44:40;;;;;;;9.43;5.25;;;3.60;99.90;;;;;;5037319;28;20021;-74
2020/12/29 00:47:05;;;;;;;11.77;5.35;;;3.60;99.90;;;;;;5037631;28;20104;-74
2020/12/29 00:49:31;;;;;;;9.52;5.05;;;3.50;99.90;;;;;;5037814;28;20021;-74
2020/12/29 00:51:57;;;;;;;10.80;5.38;;;3.60;99.90;;;;;;5054485;28;20028;-73
2020/12/29 00:54:22;;;;;;;10.32;5.45;;;3.50;99.90;;;;;;5044269;28;20034;-72
2020/12/29 00:56:48;;;;;;;12.77;6.22;;;3.50;99.90;;;;;;5035266;28;20092;-72
2020/12/29 00:59:14;;;;;;;11.05;5.30;;;3.50;99.90;;;;;;5034497;28;20030;-72
2020/12/29 01:01:40;;;;;;;10.80;5.57;;;3.50;99.90;;;;;;5016881;28;20079;-74
2020/12/29 01:04:05;;;;;;;11.35;5.13;;;3.60;99.90;;;;;;5016720;28;20021;-72
2020/12/29 01:06:31;;;;;;;10.57;5.30;;;3.50;99.90;;;;;;5034503;28;20018;-75
2020/12/29 01:08:57;;;;;;;11.20;5.38;;;3.50;99.90;;;;;;5032710;28;20087;-72
2020/12/29 01:11:23;;;;;;;11.10;6.13;;;3.50;99.90;;;;;;5055065;28;20389;-73
2020/12/29 01:13:48;;;;;;;11.55;5.22;;;3.60;99.90;;;;;;5037009;28;20021;-73
2020/12/29 01:16:14;;;;;;;12.07;5.63;;;3.60;99.90;;;;;;5036778;28;20135;-72
2020/12/29 01:18:40;;;;;;;11.85;6.05;;;3.60;99.90;;;;;;5054344;28;20385;-73
2020/12/29 01:21:08;;;;;;;13.15;5.55;;;3.60;99.90;;;;;;5054980;28;20107;-72
2020/12/29 01:23:34;;;;;;;11.40;5.90;;;3.60;99.90;;;;;;5036726;28;20043;-72
2020/12/29 01:26:00;;;;;;;11.38;6.00;;;3.50;99.90;;;;;;5054888;28;20118;-72
2020/12/29 01:28:26;;;;;;;11.15;6.20;;;3.50;99.90;;;;;;5054666;28;20025;-72
2020/12/29 01:30:51;;;;;;;11.20;6.13;;;3.60;99.90;;;;;;5036446;28;20025;-73
2020/12/29 01:33:17;;;;;;;12.18;5.80;;;3.60;99.90;;;;;;5053934;28;20053;-72
2020/12/29 01:35:42;;;;;;;10.90;5.95;;;3.60;99.90;;;;;;5036487;28;20025;-72
2020/12/29 01:38:09;;;;;;;11.80;5.72;;;3.50;99.90;;;;;;5054371;28;20049;-72
2020/12/29 01:40:35;;;;;;;12.07;6.03;;;3.50;99.90;;;;;;5023428;28;20021;-72
2020/12/29 01:43:01;;;;;;;12.73;6.25;;;3.60;99.90;;;;;;5034638;28;20025;-72
2020/12/29 01:45:27;;;;;;;14.70;5.85;;;3.60;99.90;;;;;;5034033;28;20013;-73
2020/12/29 01:47:54;;;;;;;15.98;7.47;;;3.60;99.90;;;;;;5036042;28;20029;-72
2020/12/29 01:50:24;;;;;;;15.05;7.10;;;3.60;99.90;;;;;;5036135;28;20025;-72
2020/12/29 01:53:01;;;;;;;13.52;7.28;;;3.60;99.90;;;;;;5055151;28;20025;-72
2020/12/29 01:55:28;;;;;;;14.65;7.25;;;3.60;99.90;;;;;;5055824;28;20021;-75
2020/12/29 01:57:55;;;;;;;16.67;7.68;;;3.60;99.90;;;;;;5055553;28;20029;-73
2020/12/29 02:00:22;;;;;;;18.00;8.30;;;3.60;99.90;;;;;;5046031;28;20582;-73
2020/12/29 02:02:48;;;;;;;14.90;7.57;;;3.60;99.90;;;;;;5035002;28;20017;-73
2020/12/29 02:05:13;;;;;;;16.95;7.75;;;3.70;99.90;;;;;;5034554;28;20071;-73
2020/12/29 02:07:40;;;;;;;18.77;9.18;;;3.70;99.90;;;;;;5017028;28;20025;-73
2020/12/29 02:10:06;;;;;;;17.15;8.95;;;3.70;99.90;;;;;;5034098;28;20030;-73
2020/12/29 02:12:33;;;;;;;16.92;8.75;;;3.70;99.90;;;;;;5016051;28;20032;-72
2020/12/29 02:15:00;;;;;;;17.67;9.38;;;3.70;99.90;;;;;;5015813;28;20044;-72
2020/12/29 02:17:26;;;;;;;20.30;9.45;;;3.70;99.90;;;;;;5034336;28;20030;-72
2020/12/29 02:19:52;;;;;;;19.85;9.38;;;3.80;99.90;;;;;;5034329;28;20084;-74
2020/12/29 02:22:22;;;;;;;19.23;9.10;;;3.70;99.90;;;;;;5037442;28;20139;-75
2020/12/29 02:24:50;;;;;;;19.15;9.05;;;3.70;99.90;;;;;;5037816;28;20017;-75
2020/12/29 02:27:16;;;;;;;21.73;9.80;;;3.70;99.90;;;;;;5020260;28;20071;-75
2020/12/29 02:29:41;;;;;;;20.65;9.73;;;3.70;99.90;;;;;;5020318;28;20080;-72
2020/12/29 02:32:07;;;;;;;18.65;9.68;;;3.70;99.90;;;;;;5022860;28;20041;-72
2020/12/29 02:34:36;;;;;;;19.17;9.40;;;3.70;99.90;;;;;;5057992;28;20029;-72
2020/12/29 02:37:05;;;;;;;19.40;9.70;;;3.70;99.90;;;;;;5057216;28;20025;-72
2020/12/29 02:39:32;;;;;;;;;;;3.70;99.90;;;;;;5057829;28;20426;-73
2020/12/29 02:41:57;;;;;;;21.00;10.00;;;3.70;99.90;;;;;;5057677;28;20375;-72
2020/12/29 02:44:23;;;;;;;24.58;9.77;;;3.70;99.90;;;;;;5039725;28;20033;-73
2020/12/29 02:46:48;;;;;;;19.35;9.32;;;3.70;99.90;;;;;;5057682;28;20356;-73
2020/12/29 02:49:15;;;;;;;17.90;8.75;;;3.70;99.90;;;;;;5044733;28;20060;-73
2020/12/29 02:51:41;;;;;;;18.77;8.70;;;3.70;99.90;;;;;;5019947;28;20033;-73
2020/12/29 02:54:07;;;;;;;18.85;9.52;;;3.70;99.90;;;;;;5019350;28;20025;-73
2020/12/29 02:56:32;;;;;;;18.95;9.35;;;3.60;99.90;;;;;;5037391;28;20040;-73
2020/12/29 02:58:58;;;;;;;20.60;9.43;;;3.60;99.90;;;;;;5037372;28;20026;-73
2020/12/29 03:01:27;;;;;;;19.38;9.13;;;3.60;99.90;;;;;;5037432;28;20026;-73
2020/12/29 03:03:55;;;;;;;17.60;8.68;;;3.60;99.90;;;;;;5020729;28;20060;-75
2020/12/29 03:06:20;;;;;;;18.33;8.75;;;3.60;99.90;;;;;;5019453;28;20548;-73
2020/12/29 03:08:46;;;;;;;18.48;9.05;;;3.60;99.90;;;;;;5037366;28;20053;-73
2020/12/29 03:11:12;;;;;;;16.58;8.98;;;3.60;99.90;;;;;;5093050;23;20104;-75
2020/12/29 03:13:37;;;;;;;19.88;9.30;;;3.60;99.90;;;;;;5077542;28;20411;-73
2020/12/29 03:16:03;;;;;;;19.88;9.57;;;3.60;99.90;;;;;;5059282;28;20177;-73
2020/12/29 03:18:28;;;;;;;19.55;9.18;;;3.60;99.90;;;;;;5076677;28;20477;-73
2020/12/29 03:20:54;;;;;;;18.77;8.48;;;3.60;99.90;;;;;;5076860;28;20020;-73
2020/12/29 03:23:19;;;;;;;19.55;8.80;;;3.60;99.90;;;;;;5076922;28;20029;-72
2020/12/29 03:25:45;;;;;;;18.98;8.73;;;3.60;99.90;;;;;;5059066;28;20020;-72
2020/12/29 03:28:10;;;;;;;18.13;9.13;;;3.60;99.90;;;;;;5059805;28;20036;-72
2020/12/29 03:30:36;;;;;;;19.27;9.15;;;3.60;99.90;;;;;;5076806;28;20036;-72
2020/12/29 03:33:01;;;;;;;20.10;9.98;;;3.60;99.90;;;;;;5076549;28;20107;-73
2020/12/29 03:35:27;;;;;;;21.67;10.60;;;3.60;99.90;;;;;;5058643;28;20025;-73
2020/12/29 03:37:52;;;;;;;20.25;9.88;;;3.60;99.90;;;;;;5076510;28;20480;-73
2020/12/29 03:40:18;;;;;;;19.08;9.38;;;3.60;99.90;;;;;;5076369;28;20054;-73
2020/12/29 03:42:43;;;;;;;21.13;9.98;;;3.60;99.90;;;;;;5076785;28;20024;-72
2020/12/29 03:45:09;;;;;;;18.77;9.57;;;3.60;99.90;;;;;;5058846;28;20436;-72
2020/12/29 03:47:34;;;;;;;18.35;9.05;;;3.60;99.90;;;;;;5076114;28;20028;-73
2020/12/29 03:50:00;;;;;;;22.35;10.77;;;3.70;99.90;;;;;;5058431;28;20476;-73
2020/12/29 03:52:25;;;;;;;18.13;9.20;;;3.60;99.90;;;;;;5076338;28;20054;-73
2020/12/29 03:54:51;;;;;;;20.65;8.77;;;3.70;99.90;;;;;;5075926;28;20403;-73
2020/12/29 03:57:16;;;;;;;26.15;9.82;;;3.60;99.90;;;;;;5076228;28;20043;-72
2020/12/29 03:59:42;;;;;;;19.90;9.57;;;3.70;99.90;;;;;;5076551;28;20485;-73
2020/12/29 04:02:09;;;;;;;18.02;9.00;;;3.70;99.90;;;;;;5076138;28;20411;-72
2020/12/29 04:04:36;;;;;;;18.52;9.43;;;3.70;99.90;;;;;;5076604;28;20499;-73
2020/12/29 04:07:02;;;;;;;21.27;9.38;;;3.70;99.90;;;;;;5076531;28;20028;-75
2020/12/29 04:09:30;;;;;;;20.23;9.23;;;3.70;99.90;;;;;;5075910;28;20477;-74
2020/12/29 04:11:56;;;;;;;19.20;9.45;;;3.70;99.90;;;;;;5058154;28;20493;-73
2020/12/29 04:14:21;;;;;;;19.25;9.75;;;3.70;99.90;;;;;;5075799;28;20476;-73
2020/12/29 04:16:47;;;;;;;21.77;9.15;;;3.70;99.90;;;;;;5075966;28;20029;-75
2020/12/29 04:19:12;;;;;;;19.85;9.10;;;3.70;99.90;;;;;;5061812;22;20047;-75
2020/12/29 04:21:38;;;;;;;20.52;9.95;;;3.70;99.90;;;;;;5034830;28;20112;-75
2020/12/29 04:24:03;;;;;;;19.83;10.00;;;3.80;99.90;;;;;;5036200;28;20040;-76
2020/12/29 04:26:29;;;;;;;18.58;9.60;;;3.70;99.90;;;;;;5035697;28;20415;-73
2020/12/29 04:28:54;;;;;;;22.05;10.25;;;3.70;99.90;;;;;;5036188;28;20033;-76
2020/12/29 04:31:23;;;;;;;20.13;10.15;;;3.70;99.90;;;;;;5034362;28;20112;-75
2020/12/29 04:33:49;;;;;;;20.67;9.07;;;3.80;99.90;;;;;;5029476;28;20034;-73
2020/12/29 04:36:15;;;;;;;20.27;9.35;;;3.80;99.90;;;;;;5015999;28;20034;-75
2020/12/29 04:38:43;;;;;;;21.77;10.68;;;3.80;99.90;;;;;;5015556;28;20030;-73
2020/12/29 04:41:09;;;;;;;21.80;10.43;;;3.80;99.90;;;;;;5015438;28;20026;-73
2020/12/29 04:43:36;;;;;;;19.27;9.57;;;3.80;99.90;;;;;;5015279;28;20025;-73
2020/12/29 04:46:04;;;;;;;22.23;11.13;;;3.80;99.90;;;;;;5014516;28;20026;-72
2020/12/29 04:48:30;;;;;;;20.37;10.57;;;3.80;99.90;;;;;;5028867;28;20025;-73
2020/12/29 04:51:03;;;;;;;21.02;9.98;;;3.80;99.90;;;;;;5034692;28;20116;-72
2020/12/29 04:53:33;;;;;;;18.60;9.68;;;3.80;99.90;;;;;;5035235;28;20482;-73
2020/12/29 04:56:07;;;;;;;21.90;10.25;;;3.80;99.90;;;;;;5034017;28;20045;-73
2020/12/29 04:58:34;;;;;;;23.30;10.48;;;3.80;99.90;;;;;;5035372;28;20386;-72
2020/12/29 05:01:06;;;;;;;20.13;10.55;;;3.80;99.90;;;;;;5035352;28;20030;-72
2020/12/29 05:03:46;;;;;;;19.95;9.82;;;3.80;99.90;;;;;;5025493;28;20014;-72
2020/12/29 05:06:13;;;;;;;26.00;10.85;;;3.80;99.90;;;;;;5013933;28;20033;-72
2020/12/29 05:08:46;;;;;;;22.00;10.88;;;3.80;99.90;;;;;;5015618;28;20025;-72
2020/12/29 05:11:13;;;;;;;20.67;10.18;;;3.80;99.90;;;;;;5015136;28;20445;-74
2020/12/29 05:13:39;;;;;;;22.92;11.13;;;3.80;99.90;;;;;;5014880;28;20025;-72
2020/12/29 05:16:04;;;;;;;21.48;10.75;;;3.80;99.90;;;;;;5014654;28;20033;-72
2020/12/29 05:18:30;;;;;;;22.10;11.35;;;3.80;99.90;;;;;;5013123;28;20402;-72
2020/12/29 05:20:56;;;;;;;22.67;11.60;;;3.80;99.90;;;;;;5016326;28;20030;-74
2020/12/29 05:23:22;;;;;;;22.38;10.55;;;3.80;99.90;;;;;;5015059;28;20026;-74
2020/12/29 05:25:49;;;;;;;24.67;11.15;;;3.80;99.90;;;;;;5015973;28;20092;-72
2020/12/29 05:28:14;;;;;;;19.55;9.23;;;3.80;99.90;;;;;;5015225;28;20018;-72
2020/12/29 05:30:40;;;;;;;18.35;7.72;;;3.80;99.90;;;;;;5015487;28;20510;-72
2020/12/29 05:33:12;;;;;;;16.50;7.63;;;3.80;99.90;;;;;;5013599;28;20068;-72
2020/12/29 05:35:39;;;;;;;16.63;7.78;;;3.80;99.90;;;;;;5015372;28;20075;-73
2020/12/29 05:38:07;;;;;;;17.63;7.75;;;3.80;99.90;;;;;;5015015;28;20029;-73
2020/12/29 05:40:33;;;;;;;17.40;6.88;;;3.70;99.90;;;;;;5013578;28;20061;-72
2020/12/29 05:43:00;;;;;;;16.02;7.38;;;3.80;99.90;;;;;;5014125;28;20037;-72
2020/12/29 05:45:35;;;;;;;15.38;7.00;;;3.80;99.90;;;;;;5015117;28;20030;-73
2020/12/29 05:48:01;;;;;;;15.50;6.43;;;3.80;99.90;;;;;;5015299;28;20479;-73
2020/12/29 05:50:29;;;;;;;12.80;5.60;;;3.70;99.90;;;;;;5014755;28;20079;-72
2020/12/29 05:53:01;;;;;;;13.05;5.72;;;3.80;99.90;;;;;;5030558;28;20075;-73
2020/12/29 05:55:27;;;;;;;14.55;6.80;;;3.70;99.90;;;;;;5037506;28;20414;-72
2020/12/29 05:58:11;;;;;;;11.93;5.32;;;3.60;99.90;;;;;;5038434;28;20057;-73
2020/12/29 06:00:41;;;;;;;10.55;4.80;;;3.60;99.90;;;;;;5037638;28;20033;-72
2020/12/29 06:03:08;;;;;;;12.15;4.75;;;3.60;99.90;;;;;;5037546;28;20022;-73
2020/12/29 06:05:36;;;;;;;10.55;4.45;;;3.50;99.90;;;;;;5039638;28;20018;-74
2020/12/29 06:08:03;;;;;;;10.70;4.05;;;3.50;99.90;;;;;;5037563;28;20034;-74
2020/12/29 06:10:31;;;;;;;8.55;4.05;;;3.60;99.90;;;;;;5037241;28;20082;-72
2020/12/29 06:12:59;;;;;;;9.02;4.35;;;3.50;99.90;;;;;;5037614;28;20026;-72
2020/12/29 06:15:31;;;;;;;10.90;4.35;;;3.40;99.90;;;;;;5038772;28;20025;-72
2020/12/29 06:18:01;;;;;;;11.38;4.45;;;3.40;99.90;;;;;;5038767;28;20029;-75
2020/12/29 06:20:34;;;;;;;12.35;4.80;;;3.40;99.90;;;;;;5038342;28;20499;-73
2020/12/29 06:23:02;;;;;;;11.10;4.13;;;3.40;99.90;;;;;;5036534;28;20536;-73
2020/12/29 06:25:34;;;;;;;12.73;4.97;;;3.30;99.90;;;;;;5021290;28;20018;-73
2020/12/29 06:28:01;;;;;;;9.65;4.45;;;3.30;99.90;;;;;;5018650;28;20069;-74
2020/12/29 06:30:28;;;;;;;11.63;4.93;;;3.20;99.90;;;;;;5018864;28;20045;-72
2020/12/29 06:32:54;;;;;;;11.00;4.50;;;3.30;99.90;;;;;;5017625;28;20479;-72
2020/12/29 06:35:20;;;;;;;10.88;4.75;;;3.30;99.90;;;;;;5017705;28;20022;-72
2020/12/29 06:38:14;;;;;;;12.48;5.47;;;3.30;99.90;;;;;;5018036;28;20033;-72
2020/12/29 06:40:42;;;;;;;10.40;4.30;;;3.20;99.90;;;;;;5019477;28;20029;-73
2020/12/29 06:43:08;;;;;;;10.70;4.90;;;3.30;99.90;;;;;;5031396;28;20075;-73
2020/12/29 06:45:35;;;;;;;10.07;4.63;;;3.20;99.90;;;;;;5037810;28;20029;-72
2020/12/29 06:48:01;;;;;;;12.82;4.88;;;3.20;99.90;;;;;;5037364;28;20021;-72
2020/12/29 06:50:30;;;;;;;12.63;4.75;;;3.20;99.90;;;;;;5038421;28;20049;-72
2020/12/29 06:53:04;;;;;;;13.05;5.30;;;3.20;99.90;;;;;;5036362;28;20057;-73
2020/12/29 06:55:43;;;;;;;10.80;3.80;;;3.20;99.90;;;;;;5035479;28;20107;-73
2020/12/29 06:58:10;;;;;;;11.98;5.38;;;3.20;99.90;;;;;;5017707;28;20113;-73
2020/12/29 07:00:36;;;;;;;8.57;4.35;;;3.20;99.90;;;;;;5017398;28;20026;-72
2020/12/29 07:03:03;;;;;;;8.65;4.18;;;3.20;99.90;;;;;;5016754;28;20018;-73
2020/12/29 07:05:34;;;;;;;9.02;3.40;;;3.20;99.90;;;;;;5016847;28;20026;-72
2020/12/29 07:08:07;;;;;;;8.00;3.70;;;3.20;99.90;;;;;;5017512;28;20028;-72
2020/12/29 07:10:33;;;;;;;9.05;3.90;;;3.20;99.90;;;;;;5017946;28;20025;-72
2020/12/29 07:13:14;;;;;;;10.05;4.22;;;3.20;99.90;;;;;;5025060;28;20025;-72
2020/12/29 07:15:48;;;;;;;8.23;3.50;;;3.20;99.90;;;;;;5017362;28;20030;-73
2020/12/29 07:18:22;;;;;;;8.70;3.83;;;3.20;99.90;;;;;;5016028;28;20087;-74
2020/12/29 07:20:49;;;;;;;8.70;4.25;;;3.20;99.90;;;;;;5017747;28;20032;-72
2020/12/29 07:23:19;;;;;;;9.27;3.45;;;3.20;99.90;;;;;;5018000;28;20386;-72
2020/12/29 07:25:47;;;;;;;10.02;4.35;;;3.20;99.90;;;;;;5017724;28;20018;-73
2020/12/29 07:28:14;;;;;;;10.40;4.45;;;3.20;99.90;;;;;;5017919;28;20160;-75
2020/12/29 07:30:39;;;;;;;9.90;4.13;;;3.20;99.90;;;;;;5017389;28;20026;-72
2020/12/29 07:33:06;;;;;;;8.95;4.28;;;3.20;99.90;;;;;;5072657;23;20055;-74
2020/12/29 07:35:34;;;;;;;10.95;4.20;;;3.20;99.90;;;;;;5117769;28;20028;-74
2020/12/29 07:38:20;;;;;;;11.13;4.75;;;3.20;99.90;;;;;;5117993;28;20050;-72
2020/12/29 07:40:45;;;;;;;11.45;4.90;;;3.20;99.90;;;;;;5117349;28;20033;-72
2020/12/29 07:43:11;;;;;;;11.18;4.38;;;3.30;99.90;;;;;;5117990;28;20019;-73
2020/12/29 07:45:37;;;;;;;11.23;5.30;;;3.30;99.90;;;;;;5117057;28;20023;-73
2020/12/29 07:48:05;;;;;;;10.10;4.40;;;3.30;99.90;;;;;;5099169;28;20016;-73
2020/12/29 07:50:32;;;;;;;13.20;5.55;;;3.30;99.90;;;;;;5116041;28;20031;-73
2020/12/29 07:53:01;;;;;;;11.57;4.63;;;3.30;99.90;;;;;;5098853;28;20035;-73
2020/12/29 07:55:27;;;;;;;11.05;5.22;;;3.30;99.90;;;;;;5117132;28;20026;-73
2020/12/29 07:57:52;;;;;;;13.13;5.18;;;3.30;99.90;;;;;;5117207;28;20024;-73
2020/12/29 08:00:18;;;;;;;17.13;5.38;;;3.30;99.90;;;;;;5116925;28;20023;-72
2020/12/29 08:02:52;;;;;;;12.80;5.32;;;3.30;99.90;;;;;;5116748;28;20480;-72
2020/12/29 08:05:25;;;;;;;11.85;5.32;;;3.30;99.90;;;;;;5096911;28;20383;-72
2020/12/29 08:08:00;;;;;;;16.38;6.38;;;3.40;99.90;;;;;;5116660;28;20038;-72
2020/12/29 08:10:28;;;;;;;11.88;5.47;;;3.40;99.90;;;;;;5116982;28;20024;-72
2020/12/29 08:12:56;;;;;;;15.32;6.05;;;3.40;99.90;;;;;;5116363;28;20031;-72
2020/12/29 08:15:32;;;;;;;13.50;5.38;;;3.40;99.90;;;;;;5116631;28;20490;-72
2020/12/29 08:18:09;;;;;;;14.02;6.05;;;3.40;99.90;;;;;;5097085;28;20023;-72
2020/12/29 08:20:57;;;;;;;14.93;6.72;;;3.40;99.90;;;;;;5097150;28;20019;-73
2020/12/29 08:23:27;;;;;;;14.10;6.03;;;3.40;99.90;;;;;;5095478;28;20119;-72
2020/12/29 08:25:58;;;;;;;13.93;6.20;;;3.40;99.90;;;;;;5095414;28;20020;-73
2020/12/29 08:28:26;;;;;;;18.27;6.38;;;3.50;99.90;;;;;;5077486;28;20028;-72
2020/12/29 08:30:53;;;;;;;21.17;7.90;;;3.50;99.90;;;;;;5095511;28;20411;-72
2020/12/29 08:33:22;;;;;;;14.43;7.00;;;3.50;99.90;;;;;;5095578;28;20363;-72
2020/12/29 08:35:50;;;;;;;17.15;7.05;;;3.50;99.90;;;;;;5077210;28;20480;-72
2020/12/29 08:38:41;;;;;;;16.83;6.95;;;3.50;99.90;;;;;;5095436;28;20024;-72
2020/12/29 08:41:12;;;;;;;18.38;7.32;;;3.60;99.90;;;;;;5095810;28;20016;-72
2020/12/29 08:43:49;;;;;;;18.20;7.72;;;3.60;99.90;;;;;;5095781;28;20104;-72
2020/12/29 08:46:17;;;;;;;15.50;7.03;;;3.60;99.90;;;;;;5095284;28;20024;-72
2020/12/29 08:48:59;;;;;;;18.73;7.95;;;3.70;99.90;;;;;;5095269;28;20459;-72
2020/12/29 08:51:27;;;;;;;17.80;7.47;;;3.70;99.90;;;;;;5095418;28;20093;-72
2020/12/29 08:53:54;;;;;;;18.48;7.55;;;3.70;99.90;;;;;;5096415;28;20069;-72
2020/12/29 08:56:24;;;;;;;21.65;8.10;;;3.70;99.90;;;;;;5095251;28;20031;-72
2020/12/29 08:58:50;;;;;;;18.05;7.32;;;3.70;99.90;;;;;;5095344;28;20024;-72
2020/12/29 09:01:38;;;;;;;20.40;8.27;;;3.60;99.90;;;;;;5095428;28;20077;-72
2020/12/29 09:04:23;;;;;;;19.42;7.50;;;3.70;99.90;;;;;;5086131;28;20450;-72
2020/12/29 09:06:59;;;;;;;21.42;7.75;;;3.70;99.90;;;;;;5115782;28;20026;-72
2020/12/29 09:09:26;;;;;;;18.05;8.27;;;3.70;99.90;;;;;;5097782;28;20556;-72
2020/12/29 09:12:16;;;;;;;17.00;7.82;;;3.70;99.90;;;;;;5115899;28;20024;-72
2020/12/29 09:14:59;;;;;;;23.45;8.85;;;3.70;99.90;;;;;;5097663;28;20024;-72
2020/12/29 09:17:31;;;;;;;17.45;7.25;;;3.70;99.90;;;;;;5110045;28;20016;-73
2020/12/29 09:20:22;;;;;;;19.88;7.30;;;3.70;99.90;;;;;;5095241;28;20030;-72
2020/12/29 09:23:10;;;;;;;18.58;7.38;;;3.80;99.90;;;;;;5077464;28;20518;-72
2020/12/29 09:25:43;;;;;;;21.73;8.13;;;3.80;99.90;;;;;;5077214;28;20027;-72
2020/12/29 09:28:12;;;;;;;17.42;7.28;;;3.80;99.90;;;;;;5095031;28;20032;-72
2020/12/29 09:30:38;;;;;;;19.02;6.97;;;3.80;99.90;;;;;;5095194;28;20563;-72
2020/12/29 09:33:04;;;;;;;15.45;6.78;;;3.90;99.90;;;;;;5079955;28;20036;-72
2020/12/29 09:35:31;;;;;;;19.20;7.43;;;3.90;99.90;;;;;;5077364;28;20024;-72
2020/12/29 09:37:58;;;;;;;18.02;6.60;;;4.00;99.90;;;;;;5112792;28;20055;-72
2020/12/29 09:40:26;;;;;;;17.48;7.07;;;4.00;99.90;;;;;;5115295;28;20410;-72
2020/12/29 09:42:53;;;;;;;14.52;6.65;;;4.00;99.90;;;;;;5115245;28;20073;-72
2020/12/29 09:45:20;;;;;;;17.55;7.05;;;4.00;99.90;;;;;;5115469;28;20023;-72
2020/12/29 09:47:46;;;;;;;15.90;6.57;;;4.10;99.90;;;;;;5097113;28;20031;-72
2020/12/29 09:50:12;;;;;;;16.98;6.25;;;4.10;99.90;;;;;;5111177;28;20028;-73
2020/12/29 09:52:37;;;;;;;14.55;5.80;;;4.20;99.90;;;;;;5095000;28;20047;-72
2020/12/29 09:55:04;;;;;;;13.93;5.95;;;4.30;99.90;;;;;;5095211;28;20024;-72
2020/12/29 09:57:30;;;;;;;15.32;6.63;;;4.20;99.90;;;;;;5094726;28;20035;-72
2020/12/29 09:59:55;;;;;;;15.57;6.35;;;4.30;99.90;;;;;;5095202;28;20012;-72
2020/12/29 10:02:21;;;;;;;12.65;5.97;;;4.20;99.90;;;;;;5094491;28;20442;-72
2020/12/29 10:04:47;;;;;;;15.50;6.35;;;4.30;99.90;;;;;;5095039;28;20021;-72
2020/12/29 10:07:13;;;;;;;14.65;6.25;;;4.30;99.90;;;;;;5095982;28;20108;-72
2020/12/29 10:09:38;;;;;;;14.30;5.80;;;4.30;99.90;;;;;;5095230;28;20384;-72
2020/12/29 10:12:04;;;;;;;15.60;5.85;;;4.30;99.90;;;;;;5094324;28;20028;-72
2020/12/29 10:14:30;;;;;;;14.60;6.25;;;4.30;99.90;;;;;;5094185;28;20031;-72
2020/12/29 10:16:55;;;;;;;15.02;6.20;;;4.30;99.90;;;;;;5094736;28;20059;-72
2020/12/29 10:19:21;;;;;;;12.85;5.75;;;4.40;99.90;;;;;;5094946;28;20411;-72
2020/12/29 10:21:51;;;;;;;13.02;5.97;;;4.40;99.90;;;;;;5077605;28;20091;-73
2020/12/29 10:24:17;;;;;;;13.45;6.20;;;4.40;99.90;;;;;;5095748;28;20054;-72
2020/12/29 10:26:42;;;;;;;13.57;5.97;;;4.40;99.90;;;;;;5095554;28;20024;-72
2020/12/29 10:29:08;;;;;;;14.95;6.22;;;4.40;99.90;;;;;;5095535;28;20030;-72
2020/12/29 10:31:33;;;;;;;11.80;5.20;;;4.50;99.90;;;;;;5076485;28;20020;-73
2020/12/29 10:34:02;;;;;;;15.77;6.55;;;4.50;99.90;;;;;;5094563;28;20069;-73
2020/12/29 10:36:35;;;;;;;12.70;6.20;;;4.50;99.90;;;;;;5094422;28;20016;-73
2020/12/29 10:39:01;;;;;;;13.23;6.05;;;4.60;99.90;;;;;;5083756;28;20028;-74
2020/12/29 10:41:33;;;;;;;14.45;5.03;;;4.60;99.90;;;;;;5097178;28;20038;-74
2020/12/29 10:43:58;;;;;;;13.45;4.78;;;4.70;99.90;;;;;;5118573;28;20012;-74
2020/12/29 10:46:24;;;;;;;12.45;5.57;;;4.70;99.90;;;;;;5101269;28;20024;-74
2020/12/29 10:48:50;;;;;;;11.25;4.82;;;4.70;99.90;;;;;;5119667;28;20203;-75
2020/12/29 10:51:20;;;;;;;7.03;3.33;;;4.70;99.90;;;;;;5119831;28;20032;-75
2020/12/29 10:53:46;;;;;;;8.98;3.90;;;4.70;99.90;;;;;;5119243;28;20023;-75
2020/12/29 10:56:11;;;;;;;10.10;4.18;;;4.80;99.90;;;;;;5103519;28;20039;-75
2020/12/29 10:58:38;;;;;;;9.63;4.30;;;4.80;99.90;;;;;;5098284;28;20020;-76
2020/12/29 11:01:04;;;;;;;9.88;4.63;;;4.90;99.90;;;;;;5097858;28;20106;-75
2020/12/29 11:03:29;;;;;;;10.93;4.57;;;4.90;99.90;;;;;;5098673;28;20021;-75
2020/12/29 11:05:55;;;;;;;9.27;4.55;;;4.90;99.90;;;;;;5080293;28;20058;-75
2020/12/29 11:08:21;;;;;;;10.50;5.00;;;4.90;99.90;;;;;;5101431;28;20487;-75
2020/12/29 11:10:49;;;;;;;10.90;4.95;;;5.00;99.90;;;;;;5118830;28;20024;-75
2020/12/29 11:13:15;;;;;;;10.98;5.45;;;5.00;99.90;;;;;;5100398;28;20087;-75
2020/12/29 11:15:41;;;;;;;12.80;5.40;;;5.00;99.90;;;;;;5118947;28;20066;-75
2020/12/29 11:18:09;;;;;;;10.52;4.78;;;4.90;99.90;;;;;;5108944;28;20040;-75
2020/12/29 11:20:35;;;;;;;13.95;4.78;;;4.90;99.90;;;;;;5116370;28;20026;-75
2020/12/29 11:23:00;;;;;;;11.60;5.38;;;4.90;99.90;;;;;;5117887;28;20051;-75
2020/12/29 11:25:26;;;;;;;12.90;5.68;;;5.00;99.90;;;;;;5117587;28;20035;-75
2020/12/29 11:27:52;;;;;;;11.35;5.32;;;5.00;99.90;;;;;;5099111;28;20046;-75
2020/12/29 11:30:17;;;;;;;13.40;5.75;;;5.10;99.90;;;;;;5117878;28;20023;-75
2020/12/29 11:32:43;;;;;;;14.23;6.53;;;5.10;99.90;;;;;;5118500;28;20024;-75
2020/12/29 11:35:09;;;;;;;13.95;6.40;;;5.10;99.90;;;;;;5117600;28;20111;-75
2020/12/29 11:37:34;;;;;;;13.77;5.72;;;5.10;99.90;;;;;;5117129;28;20020;-75
2020/12/29 11:40:00;;;;;;;14.50;6.68;;;5.10;99.90;;;;;;5099635;28;20028;-75
2020/12/29 11:42:27;;;;;;;14.30;6.50;;;5.10;99.90;;;;;;5099300;28;20022;-75
2020/12/29 11:44:52;;;;;;;16.83;7.10;;;5.10;99.90;;;;;;5103203;28;20024;-75
2020/12/29 11:47:18;;;;;;;17.75;8.10;;;5.10;99.90;;;;;;5097191;28;20467;-75
2020/12/29 11:49:44;;;;;;;19.10;8.18;;;5.20;99.90;;;;;;5097352;28;20413;-74
2020/12/29 11:52:09;;;;;;;22.05;10.00;;;5.20;99.90;;;;;;5078695;28;20028;-75
2020/12/29 11:54:35;;;;;;;25.35;10.88;;;5.20;99.90;;;;;;5078145;28;20028;-75
2020/12/29 11:57:00;;;;;;;28.55;12.25;;;5.20;99.90;;;;;;5078724;28;20031;-75
2020/12/29 11:59:26;;;;;;;26.92;12.07;;;5.20;99.90;;;;;;5100345;28;20379;-75
2020/12/29 12:01:51;;;;;;;25.13;12.02;;;5.30;99.90;;;;;;5097772;28;20027;-75
2020/12/29 12:04:17;;;;;;;33.08;13.55;;;5.30;99.90;;;;;;5117675;28;20027;-74
2020/12/29 12:06:45;;;;;;;25.88;11.65;;;5.30;99.90;;;;;;5117546;28;20019;-75
2020/12/29 12:09:12;;;;;;;23.30;11.45;;;5.30;99.90;;;;;;5117817;28;20046;-75
2020/12/29 12:11:41;;;;;;;17.60;8.52;;;5.30;99.90;;;;;;5099319;28;20141;-75
2020/12/29 12:14:07;;;;;;;19.35;9.35;;;5.30;99.90;;;;;;5116345;28;20072;-74
2020/12/29 12:16:39;;;;;;;22.52;9.57;;;5.30;99.90;;;;;;5098433;28;20118;-75
2020/12/29 12:19:05;;;;;;;19.65;9.77;;;5.40;99.90;;;;;;5117418;28;20045;-75
2020/12/29 12:21:33;;;;;;;18.17;9.27;;;5.40;99.90;;;;;;5111103;28;20016;-75
2020/12/29 12:23:59;;;;;;;17.38;9.07;;;5.50;99.90;;;;;;5078342;28;20020;-74
2020/12/29 12:26:25;;;;;;;19.73;9.35;;;5.50;99.90;;;;;;5079270;28;20143;-75
2020/12/29 12:28:51;;;;;;;16.75;8.75;;;5.50;99.90;;;;;;5078515;28;20492;-75
2020/12/29 12:31:16;;;;;;;19.23;8.40;;;5.60;99.90;;;;;;5077801;28;20023;-75
2020/12/29 12:33:44;;;;;;;16.00;7.50;;;5.70;99.90;;;;;;5095732;28;20043;-75
2020/12/29 12:36:10;;;;;;;17.08;8.82;;;5.90;99.90;;;;;;5108708;28;20038;-75
2020/12/29 12:38:36;;;;;;;13.82;7.35;;;6.00;99.90;;;;;;5116448;28;20454;-75
2020/12/29 12:41:06;;;;;;;16.00;7.47;;;6.00;99.90;;;;;;5116543;28;20019;-75
2020/12/29 12:43:31;;;;;;;13.10;6.47;;;6.00;99.90;;;;;;5098142;28;20016;-75
2020/12/29 12:45:57;;;;;;;13.40;6.93;;;6.10;99.90;;;;;;5097777;28;20115;-75
2020/12/29 12:48:23;;;;;;;12.32;6.13;;;6.20;99.90;;;;;;5116369;28;20020;-75
2020/12/29 12:50:49;;;;;;;13.13;5.50;;;6.40;99.90;;;;;;5115696;28;20368;-75